createdAt,value
2019-04-04T00:01:43.964Z,42.40
2019-04-04T00:04:12.851Z,42.40
2019-04-04T00:06:41.527Z,42.60
2019-04-04T00:09:10.802Z,42.50
2019-04-04T00:11:39.600Z,42.90
2019-04-04T00:14:08.288Z,43.00
2019-04-04T00:16:36.956Z,43.90
2019-04-04T00:19:05.634Z,43.20
2019-04-04T00:21:34.630Z,43.50
2019-04-04T00:24:03.593Z,43.60
2019-04-04T00:26:32.311Z,43.70
2019-04-04T00:29:01.510Z,43.70
2019-04-04T00:31:30.767Z,43.70
2019-04-04T00:33:59.592Z,43.60
2019-04-04T00:36:28.196Z,43.80
2019-04-04T00:38:56.944Z,44.10
2019-04-04T00:41:25.637Z,44.00
2019-04-04T00:43:54.462Z,44.00
2019-04-04T00:46:23.156Z,44.40
2019-04-04T00:48:51.863Z,44.70
2019-04-04T00:51:20.634Z,44.70
2019-04-04T00:53:49.356Z,44.80
2019-04-04T00:56:18.683Z,44.90
2019-04-04T00:58:47.562Z,45.00
2019-04-04T01:01:16.675Z,45.00
2019-04-04T01:03:45.554Z,45.10
2019-04-04T01:06:14.176Z,45.50
2019-04-04T01:08:42.937Z,45.60
2019-04-04T01:11:12.069Z,45.40
2019-04-04T01:13:40.763Z,45.60
2019-04-04T01:16:09.511Z,45.70
2019-04-04T01:18:38.170Z,46.00
2019-04-04T01:21:06.954Z,45.90
2019-04-04T01:23:35.658Z,45.90
2019-04-04T01:26:04.412Z,46.00
2019-04-04T01:28:33.022Z,46.30
2019-04-04T01:31:01.744Z,46.30
2019-04-04T01:33:30.582Z,46.50
2019-04-04T01:35:59.236Z,46.60
2019-04-04T01:38:29.102Z,47.10
2019-04-04T01:40:58.505Z,47.60
2019-04-04T01:43:27.116Z,47.80
2019-04-04T01:45:55.948Z,48.00
2019-04-04T01:48:24.714Z,48.60
2019-04-04T01:50:53.776Z,48.50
2019-04-04T01:53:22.976Z,48.60
2019-04-04T01:55:51.675Z,49.20
2019-04-04T01:58:20.383Z,49.60
2019-04-04T02:00:49.093Z,50.00
2019-04-04T02:03:17.874Z,50.60
2019-04-04T02:05:46.464Z,51.10
2019-04-04T02:08:15.063Z,51.30
2019-04-04T02:10:43.985Z,51.60
2019-04-04T02:13:12.771Z,51.80
2019-04-04T02:15:42.787Z,52.00
2019-04-04T02:18:11.657Z,52.30
2019-04-04T02:20:40.241Z,52.50
2019-04-04T02:23:08.927Z,52.50
2019-04-04T02:25:37.608Z,52.80
2019-04-04T02:28:08.571Z,52.90
2019-04-04T02:30:36.594Z,53.10
2019-04-04T02:33:05.510Z,53.00
2019-04-04T02:35:34.195Z,53.10
2019-04-04T02:38:02.884Z,53.20
2019-04-04T02:40:31.816Z,53.10
2019-04-04T02:43:01.090Z,53.00
2019-04-04T02:45:29.696Z,53.40
2019-04-04T02:47:58.390Z,53.50
2019-04-04T02:50:27.202Z,53.70
2019-04-04T02:52:55.926Z,53.90
2019-04-04T02:55:24.501Z,53.80
2019-04-04T02:57:53.310Z,53.90
2019-04-04T03:00:26.191Z,54.20
2019-04-04T03:02:52.426Z,54.30
2019-04-04T03:05:21.024Z,54.50
2019-04-04T03:07:49.825Z,54.60
2019-04-04T03:10:18.560Z,54.50
2019-04-04T03:12:47.416Z,54.60
2019-04-04T03:15:16.101Z,55.60
2019-04-04T03:17:44.770Z,55.10
2019-04-04T03:20:16.349Z,55.10
2019-04-04T03:22:43.789Z,55.30
2019-04-04T03:25:14.797Z,55.30
2019-04-04T03:27:42.945Z,55.40
2019-04-04T03:30:14.389Z,55.50
2019-04-04T03:32:42.552Z,55.60
2019-04-04T03:35:11.136Z,55.60
2019-04-04T03:37:41.111Z,55.60
2019-04-04T03:40:11.801Z,56.00
2019-04-04T03:42:43.900Z,55.80
2019-04-04T03:45:10.923Z,56.10
2019-04-04T03:47:43.270Z,56.10
2019-04-04T03:50:10.641Z,56.00
2019-04-04T03:52:43.369Z,56.30
2019-04-04T03:55:10.075Z,56.50
2019-04-04T03:57:38.791Z,56.30
2019-04-04T04:00:08.617Z,56.50
2019-04-04T04:02:37.629Z,56.30
2019-04-04T04:05:18.073Z,56.60
2019-04-04T04:07:48.092Z,56.50
2019-04-04T04:10:17.081Z,56.90
2019-04-04T04:12:45.732Z,57.00
2019-04-04T04:15:14.460Z,57.00
2019-04-04T04:17:45.484Z,57.00
2019-04-04T04:20:13.819Z,57.00
2019-04-04T04:22:42.460Z,57.30
2019-04-04T04:25:11.680Z,57.50
2019-04-04T04:27:40.668Z,57.50
2019-04-04T04:30:10.186Z,57.40
2019-04-04T04:32:38.911Z,57.70
2019-04-04T04:35:09.007Z,57.50
2019-04-04T04:37:37.985Z,57.80
2019-04-04T04:40:06.974Z,57.50
2019-04-04T04:42:35.591Z,57.80
2019-04-04T04:45:11.185Z,57.60
2019-04-04T04:47:36.791Z,57.60
2019-04-04T04:50:09.522Z,57.30
2019-04-04T04:52:38.285Z,57.20
2019-04-04T04:55:07.034Z,56.90
2019-04-04T04:57:37.134Z,56.80
2019-04-04T05:00:06.180Z,56.90
2019-04-04T05:02:35.105Z,56.20
2019-04-04T05:05:04.727Z,55.50
2019-04-04T05:07:34.010Z,52.70
2019-04-04T05:10:03.162Z,51.20
2019-04-04T05:12:32.015Z,50.10
2019-04-04T05:15:01.400Z,49.30
2019-04-04T05:17:31.347Z,49.60
2019-04-04T05:20:00.025Z,49.00
2019-04-04T05:22:28.885Z,48.10
2019-04-04T05:25:07.858Z,47.90
2019-04-04T05:27:28.354Z,46.90
2019-04-04T05:30:02.043Z,46.10
2019-04-04T05:32:31.164Z,46.30
2019-04-04T05:35:01.343Z,45.70
2019-04-04T05:37:30.913Z,46.20
2019-04-04T05:40:01.752Z,44.70
2019-04-04T05:42:32.851Z,44.50
2019-04-04T05:45:00.941Z,44.00
2019-04-04T05:47:29.690Z,43.50
2019-04-04T05:49:58.727Z,43.60
2019-04-04T05:52:27.808Z,43.80
2019-04-04T05:54:56.709Z,43.20
2019-04-04T05:57:25.582Z,42.70
2019-04-04T05:59:55.991Z,41.80
2019-04-04T06:02:25.260Z,42.40
2019-04-04T06:04:55.365Z,41.10
2019-04-04T06:07:24.445Z,39.40
2019-04-04T06:09:53.563Z,39.40
2019-04-04T06:12:22.972Z,40.30
2019-04-04T06:14:52.782Z,40.90
2019-04-04T06:17:21.920Z,41.40
2019-04-04T06:20:10.151Z,41.30
2019-04-04T06:22:39.474Z,39.90
2019-04-04T06:25:11.215Z,39.70
2019-04-04T06:27:40.859Z,39.40
2019-04-04T06:30:10.091Z,39.50
2019-04-04T06:32:40.288Z,39.20
2019-04-04T06:35:09.016Z,38.50
2019-04-04T06:37:38.732Z,39.90
2019-04-04T06:40:08.115Z,41.20
2019-04-04T06:42:37.124Z,40.20
2019-04-04T06:45:07.437Z,40.60
2019-04-04T06:47:36.194Z,40.80
2019-04-04T06:50:08.243Z,41.40
2019-04-04T06:52:37.647Z,42.10
2019-04-04T06:55:08.127Z,41.00
2019-04-04T06:57:37.521Z,40.80
2019-04-04T07:00:08.565Z,39.70
2019-04-04T07:02:37.363Z,38.30
2019-04-04T07:05:10.420Z,38.00
2019-04-04T07:07:43.314Z,39.40
2019-04-04T07:10:40.390Z,38.70
2019-04-04T07:12:48.858Z,39.40
2019-04-04T07:15:17.000Z,38.60
2019-04-04T07:17:45.866Z,38.10
2019-04-04T07:20:16.561Z,37.90
2019-04-04T07:22:45.483Z,38.30
2019-04-04T07:25:14.353Z,39.00
2019-04-04T07:27:43.047Z,38.70
2019-04-04T07:30:15.314Z,38.90
2019-04-04T07:32:42.126Z,38.50
2019-04-04T07:35:12.803Z,39.40
2019-04-04T07:37:41.394Z,38.50
2019-04-04T07:40:10.419Z,38.80
2019-04-04T07:42:40.220Z,39.90
2019-04-04T07:45:09.752Z,39.80
2019-04-04T07:47:38.387Z,39.90
2019-04-04T07:50:07.837Z,39.50
2019-04-04T07:52:36.506Z,40.00
2019-04-04T07:55:09.936Z,39.80
2019-04-04T07:57:36.783Z,40.00
2019-04-04T08:00:07.716Z,38.10
2019-04-04T08:02:36.478Z,37.80
2019-04-04T08:05:08.114Z,38.40
2019-04-04T08:07:36.841Z,36.80
2019-04-04T08:10:19.922Z,37.00
2019-04-04T08:12:39.690Z,36.10
2019-04-04T08:15:08.415Z,35.70
2019-04-04T08:17:37.346Z,35.50
2019-04-04T08:20:07.014Z,36.50
2019-04-04T08:22:35.602Z,36.90
2019-04-04T08:25:05.253Z,36.30
2019-04-04T08:27:34.209Z,36.10
2019-04-04T08:30:02.918Z,36.50
2019-04-04T08:32:31.632Z,36.00
2019-04-04T08:35:00.937Z,37.60
2019-04-04T08:37:29.839Z,35.90
2019-04-04T08:39:58.566Z,35.90
2019-04-04T08:42:27.469Z,36.30
2019-04-04T08:44:56.192Z,35.90
2019-04-04T08:47:24.974Z,36.20
2019-04-04T08:49:53.791Z,35.90
2019-04-04T08:52:22.670Z,35.80
2019-04-04T08:54:51.562Z,35.90
2019-04-04T08:57:20.336Z,35.70
2019-04-04T08:59:49.412Z,34.20
2019-04-04T09:02:18.260Z,34.40
2019-04-04T09:04:46.977Z,35.30
2019-04-04T09:07:16.855Z,35.00
2019-04-04T09:09:46.440Z,36.50
2019-04-04T09:12:15.431Z,36.30
2019-04-04T09:14:44.270Z,37.40
2019-04-04T09:17:13.191Z,37.10
2019-04-04T09:19:41.988Z,36.70
2019-04-04T09:22:11.060Z,37.80
2019-04-04T09:24:39.850Z,38.60
2019-04-04T09:27:09.378Z,39.10
2019-04-04T09:29:38.264Z,38.90
2019-04-04T09:32:07.044Z,38.90
2019-04-04T09:34:35.723Z,38.10
2019-04-04T09:37:04.649Z,38.50
2019-04-04T09:39:33.423Z,38.10
2019-04-04T09:42:02.117Z,38.30
2019-04-04T09:44:30.724Z,39.10
2019-04-04T09:47:05.354Z,37.70
2019-04-04T09:49:30.009Z,36.90
2019-04-04T09:51:58.848Z,37.80
2019-04-04T09:54:27.578Z,38.30
2019-04-04T09:56:56.528Z,37.60
2019-04-04T09:59:25.120Z,37.70
2019-04-04T10:01:53.764Z,38.30
2019-04-04T10:04:22.376Z,39.00
2019-04-04T10:06:51.340Z,38.10
2019-04-04T10:09:20.119Z,37.90
2019-04-04T10:11:48.841Z,37.40
2019-04-04T10:14:17.442Z,37.20
2019-04-04T10:16:46.089Z,36.10
2019-04-04T10:19:14.827Z,37.50
2019-04-04T10:21:43.572Z,37.60
2019-04-04T10:24:15.260Z,37.00
2019-04-04T10:26:44.087Z,35.20
2019-04-04T10:29:12.721Z,35.10
2019-04-04T10:31:41.478Z,34.20
2019-04-04T10:34:10.056Z,34.30
2019-04-04T10:36:38.762Z,35.80
2019-04-04T10:39:10.454Z,35.10
2019-04-04T10:41:39.018Z,35.20
2019-04-04T10:44:07.779Z,36.00
2019-04-04T10:46:36.905Z,36.80
2019-04-04T10:49:08.183Z,37.20
2019-04-04T10:51:35.853Z,36.20
2019-04-04T10:54:04.735Z,36.10
2019-04-04T10:56:33.409Z,36.80
2019-04-04T10:59:02.106Z,36.40
2019-04-04T11:01:30.874Z,35.70
2019-04-04T11:03:59.452Z,36.00
2019-04-04T11:06:28.113Z,36.80
2019-04-04T11:08:57.186Z,37.10
2019-04-04T11:11:25.793Z,36.60
2019-04-04T11:13:54.397Z,36.20
2019-04-04T11:16:30.031Z,36.80
2019-04-04T11:18:53.330Z,36.50
2019-04-04T11:21:22.173Z,36.60
2019-04-04T11:23:50.943Z,36.10
2019-04-04T11:26:19.633Z,37.20
2019-04-04T11:28:48.349Z,36.50
2019-04-04T11:31:17.004Z,36.50
2019-04-04T11:33:45.703Z,36.20
2019-04-04T11:36:14.423Z,36.30
2019-04-04T11:38:44.259Z,35.80
2019-04-04T11:41:14.643Z,36.60
2019-04-04T11:43:43.555Z,37.70
2019-04-04T11:46:12.277Z,37.30
2019-04-04T11:48:41.654Z,37.40
2019-04-04T11:51:10.309Z,37.90
2019-04-04T11:53:38.869Z,37.40
2019-04-04T11:56:07.665Z,37.80
2019-04-04T11:58:36.399Z,37.40
2019-04-04T12:01:07.319Z,36.90
2019-04-04T12:03:36.115Z,36.50
2019-04-04T12:06:05.095Z,36.60
2019-04-04T12:08:33.779Z,37.40
2019-04-04T12:11:02.633Z,37.40
2019-04-04T12:13:31.309Z,37.40
2019-04-04T12:15:59.983Z,37.70
2019-04-04T12:18:28.654Z,38.20
2019-04-04T12:20:57.465Z,39.20
2019-04-04T12:23:26.182Z,38.60
2019-04-04T12:25:54.843Z,39.00
2019-04-04T12:28:23.535Z,38.60
2019-04-04T12:30:52.165Z,38.10
2019-04-04T12:33:20.783Z,38.40
2019-04-04T12:35:52.279Z,38.10
2019-04-04T12:38:19.687Z,38.20
2019-04-04T12:40:48.465Z,37.90
2019-04-04T12:43:17.117Z,37.70
2019-04-04T12:45:45.772Z,37.40
2019-04-04T12:48:14.425Z,37.90
2019-04-04T12:50:43.263Z,37.60
2019-04-04T12:53:12.027Z,37.90
2019-04-04T12:55:43.357Z,37.70
2019-04-04T12:58:12.406Z,37.60
2019-04-04T13:00:41.282Z,37.60
2019-04-04T13:03:09.889Z,37.80
2019-04-04T13:05:38.826Z,37.90
2019-04-04T13:08:07.483Z,37.30
2019-04-04T13:10:36.167Z,37.30
2019-04-04T13:13:04.907Z,36.60
2019-04-04T13:15:33.637Z,38.00
2019-04-04T13:18:02.417Z,38.20
2019-04-04T13:20:31.155Z,38.30
2019-04-04T13:22:59.958Z,38.60
2019-04-04T13:25:28.691Z,38.40
2019-04-04T13:27:57.367Z,38.70
2019-04-04T13:30:26.183Z,38.40
2019-04-04T13:32:54.785Z,37.90
2019-04-04T13:35:24.987Z,38.50
2019-04-04T13:37:53.596Z,37.80
2019-04-04T13:40:22.312Z,38.50
2019-04-04T13:42:53.048Z,38.40
2019-04-04T13:45:24.859Z,38.70
2019-04-04T13:47:52.018Z,38.40
2019-04-04T13:50:20.782Z,38.90
2019-04-04T13:52:59.814Z,38.80
2019-04-04T13:55:28.399Z,39.30
2019-04-04T13:57:57.074Z,39.20
2019-04-04T14:00:25.886Z,39.10
2019-04-04T14:02:54.487Z,39.00
2019-04-04T14:05:23.148Z,39.00
2019-04-04T14:07:51.842Z,38.80
2019-04-04T14:10:20.448Z,38.60
2019-04-04T14:12:49.064Z,38.50
2019-04-04T14:15:17.812Z,38.90
2019-04-04T14:17:46.573Z,39.10
2019-04-04T14:20:15.767Z,38.80
2019-04-04T14:22:44.524Z,38.60
2019-04-04T14:25:13.306Z,39.10
2019-04-04T14:27:42.052Z,39.80
2019-04-04T14:30:11.695Z,39.80
2019-04-04T14:32:42.454Z,39.90
2019-04-04T14:35:10.790Z,40.30
2019-04-04T14:37:39.530Z,40.20
2019-04-04T14:40:09.096Z,40.50
2019-04-04T14:42:40.752Z,40.40
2019-04-04T14:45:09.642Z,40.60
2019-04-04T14:47:39.607Z,40.80
2019-04-04T14:50:08.477Z,41.00
2019-04-04T14:52:40.483Z,40.80
2019-04-04T14:55:09.176Z,40.90
2019-04-04T14:57:37.922Z,41.70
2019-04-04T15:00:09.970Z,41.10
2019-04-04T15:02:38.946Z,41.30
2019-04-04T15:05:09.407Z,41.10
2019-04-04T15:07:38.166Z,40.80
2019-04-04T15:10:07.101Z,41.10
2019-04-04T15:12:36.036Z,42.00
2019-04-04T15:15:06.447Z,41.50
2019-04-04T15:17:35.282Z,41.30
2019-04-04T15:20:05.020Z,41.30
2019-04-04T15:22:33.896Z,41.20
2019-04-04T15:25:02.750Z,41.40
2019-04-04T15:27:33.285Z,41.60
2019-04-04T15:30:02.047Z,41.70
2019-04-04T15:32:30.848Z,41.90
2019-04-04T15:34:59.499Z,42.20
2019-04-04T15:37:28.639Z,42.30
2019-04-04T15:39:57.413Z,42.30
2019-04-04T15:42:26.213Z,42.50
2019-04-04T15:44:55.106Z,42.50
2019-04-04T15:47:23.978Z,42.70
2019-04-04T15:49:52.710Z,42.70
2019-04-04T15:52:21.558Z,42.90
2019-04-04T15:54:50.186Z,43.30
2019-04-04T15:57:19.230Z,42.90
2019-04-04T15:59:48.102Z,43.20
2019-04-04T16:02:16.890Z,42.90
2019-04-04T16:04:45.539Z,43.30
2019-04-04T16:07:14.630Z,43.40
2019-04-04T16:09:43.474Z,43.60
2019-04-04T16:12:12.143Z,43.60
2019-04-04T16:14:40.761Z,43.80
2019-04-04T16:17:09.810Z,43.90
2019-04-04T16:19:38.505Z,44.20
2019-04-04T16:22:07.202Z,44.50
2019-04-04T16:24:36.063Z,44.50
2019-04-04T16:27:04.972Z,44.60
2019-04-04T16:29:34.166Z,45.00
2019-04-04T16:32:02.847Z,45.20
2019-04-04T16:34:31.918Z,45.60
2019-04-04T16:37:00.729Z,45.60
2019-04-04T16:39:47.076Z,45.80
2019-04-04T16:42:16.057Z,46.20
2019-04-04T16:44:44.886Z,46.10
2019-04-04T16:47:14.044Z,46.40
2019-04-04T16:49:42.766Z,46.40
2019-04-04T16:52:15.208Z,46.80
2019-04-04T16:54:44.314Z,46.80
2019-04-04T16:57:15.655Z,47.20
2019-04-04T16:59:44.319Z,47.70
2019-04-04T17:02:13.335Z,48.30
2019-04-04T17:04:41.981Z,48.70
2019-04-04T17:07:10.694Z,49.40
2019-04-04T17:09:39.485Z,50.00
2019-04-04T17:12:14.920Z,49.90
2019-04-04T17:14:39.212Z,50.50
2019-04-04T17:17:08.046Z,50.40
2019-04-04T17:19:37.055Z,50.40
2019-04-04T17:22:05.964Z,50.90
2019-04-04T17:24:34.778Z,50.70
2019-04-04T17:27:03.581Z,51.10
2019-04-04T17:29:32.320Z,51.10
2019-04-04T17:32:01.104Z,51.40
2019-04-04T17:34:29.805Z,51.50
2019-04-04T17:36:58.820Z,52.00
2019-04-04T17:39:28.197Z,52.30
2019-04-04T17:41:56.856Z,52.40
2019-04-04T17:44:25.569Z,52.60
2019-04-04T17:46:54.896Z,52.90
2019-04-04T17:49:23.934Z,53.10
2019-04-04T17:51:52.772Z,53.50
2019-04-04T17:54:21.493Z,53.30
2019-04-04T17:56:50.668Z,53.80
2019-04-04T17:59:19.525Z,53.80
2019-04-04T18:01:48.291Z,54.30
2019-04-04T18:04:16.996Z,54.10
2019-04-04T18:06:45.682Z,54.20
2019-04-04T18:09:14.509Z,54.30
2019-04-04T18:11:43.747Z,54.70
2019-04-04T18:14:12.477Z,54.80
2019-04-04T18:16:41.149Z,55.00
2019-04-04T18:19:09.875Z,54.80
2019-04-04T18:21:38.773Z,55.20
2019-04-04T18:24:07.362Z,54.90
2019-04-04T18:26:35.968Z,55.10
2019-04-04T18:29:05.149Z,55.40
2019-04-04T18:31:33.906Z,55.60
2019-04-04T18:34:03.225Z,56.00
2019-04-04T18:36:32.239Z,56.00
2019-04-04T18:39:01.274Z,55.90
2019-04-04T18:41:29.982Z,56.00
2019-04-04T18:43:58.961Z,56.10
2019-04-04T18:46:27.629Z,56.40
2019-04-04T18:48:56.457Z,56.50
2019-04-04T18:51:25.293Z,56.90
2019-04-04T18:53:54.151Z,57.00
2019-04-04T18:56:22.861Z,57.10
2019-04-04T18:58:51.591Z,57.20
2019-04-04T19:01:20.336Z,57.00
2019-04-04T19:03:48.997Z,57.00
2019-04-04T19:06:17.792Z,57.20
2019-04-04T19:08:52.911Z,57.20
2019-04-04T19:11:24.484Z,57.40
2019-04-04T19:13:53.233Z,57.50
2019-04-04T19:16:21.941Z,57.70
2019-04-04T19:18:50.576Z,57.60
2019-04-04T19:21:19.468Z,57.40
2019-04-04T19:23:49.685Z,57.70
2019-04-04T19:26:18.690Z,57.40
2019-04-04T19:28:47.239Z,57.40
2019-04-04T19:31:15.943Z,57.50
2019-04-04T19:33:45.294Z,56.80
2019-04-04T19:36:14.041Z,57.20
2019-04-04T19:38:42.853Z,56.70
2019-04-04T19:41:11.870Z,56.70
2019-04-04T19:43:40.476Z,56.40
2019-04-04T19:46:09.275Z,56.50
2019-04-04T19:48:38.021Z,56.40
2019-04-04T19:51:06.753Z,56.20
2019-04-04T19:53:35.338Z,55.70
2019-04-04T19:56:04.187Z,55.40
2019-04-04T19:58:32.880Z,55.30
2019-04-04T20:01:01.739Z,55.60
2019-04-04T20:03:30.419Z,55.00
2019-04-04T20:05:59.307Z,55.30
2019-04-04T20:08:29.934Z,55.00
2019-04-04T20:10:58.708Z,54.80
2019-04-04T20:13:31.169Z,55.00
2019-04-04T20:15:58.083Z,55.50
2019-04-04T20:18:26.663Z,55.30
2019-04-04T20:20:55.427Z,55.10
2019-04-04T20:23:24.106Z,54.70
2019-04-04T20:25:52.805Z,55.00
2019-04-04T20:28:21.564Z,55.10
2019-04-04T20:30:50.469Z,55.20
2019-04-04T20:33:19.101Z,54.80
2019-04-04T20:35:47.777Z,55.00
2019-04-04T20:38:16.646Z,55.20
2019-04-04T20:40:45.290Z,55.10
2019-04-04T20:43:15.551Z,55.10
2019-04-04T20:45:44.198Z,55.20
2019-04-04T20:48:13.098Z,55.20
2019-04-04T20:50:42.074Z,55.20
2019-04-04T20:53:11.064Z,55.30
2019-04-04T20:55:39.775Z,55.50
2019-04-04T20:58:08.536Z,55.50
2019-04-04T21:00:37.230Z,55.80
2019-04-04T21:03:05.992Z,55.90
2019-04-04T21:05:35.258Z,56.10
2019-04-04T21:08:03.998Z,56.40
2019-04-04T21:10:32.662Z,56.30
2019-04-04T21:13:01.488Z,56.40
2019-04-04T21:15:30.133Z,56.80
2019-04-04T21:17:58.768Z,56.90
2019-04-04T21:20:27.484Z,56.50
2019-04-04T21:22:56.287Z,56.90
2019-04-04T21:25:24.909Z,57.10
2019-04-04T21:27:53.540Z,58.00
2019-04-04T21:30:22.293Z,57.10
2019-04-04T21:32:51.035Z,57.50
2019-04-04T21:35:19.858Z,57.60
2019-04-04T21:37:48.647Z,57.80
2019-04-04T21:40:17.321Z,57.90
2019-04-04T21:42:46.078Z,57.70
2019-04-04T21:45:15.485Z,57.70
2019-04-04T21:47:44.355Z,57.60
2019-04-04T21:50:13.111Z,57.60
2019-04-04T21:52:42.088Z,58.00
2019-04-04T21:55:10.900Z,58.10
2019-04-04T21:57:39.474Z,58.40
2019-04-04T22:00:09.117Z,58.30
2019-04-04T22:02:37.890Z,58.60
2019-04-04T22:05:09.202Z,58.80
2019-04-04T22:07:38.032Z,58.90
2019-04-04T22:10:07.958Z,58.90
2019-04-04T22:12:36.836Z,58.80
2019-04-04T22:15:07.790Z,58.90
2019-04-04T22:17:36.552Z,59.70
2019-04-04T22:20:07.398Z,58.90
2019-04-04T22:22:36.055Z,59.10
2019-04-04T22:25:06.707Z,59.20
2019-04-04T22:27:35.398Z,59.20
2019-04-04T22:30:08.616Z,59.50
2019-04-04T22:32:37.454Z,59.40
2019-04-04T22:35:06.908Z,59.80
2019-04-04T22:37:35.789Z,60.30
2019-04-04T22:40:06.654Z,60.30
2019-04-04T22:42:35.344Z,60.50
2019-04-04T22:45:06.401Z,60.90
2019-04-04T22:47:35.169Z,61.00
2019-04-04T22:50:05.802Z,61.50
2019-04-04T22:52:34.496Z,61.70
2019-04-04T22:55:03.340Z,62.20
2019-04-04T22:57:32.089Z,62.10
2019-04-04T23:00:00.751Z,62.60
2019-04-04T23:02:29.441Z,62.70
2019-04-04T23:05:00.570Z,62.80
2019-04-04T23:07:29.528Z,63.00
2019-04-04T23:09:58.137Z,63.00
2019-04-04T23:12:26.784Z,63.00
2019-04-04T23:14:55.491Z,63.10
2019-04-04T23:17:24.108Z,63.30
2019-04-04T23:19:53.204Z,63.30
2019-04-04T23:22:21.791Z,63.10
2019-04-04T23:24:50.674Z,63.20
2019-04-04T23:27:19.319Z,63.30
2019-04-04T23:29:47.958Z,63.30
2019-04-04T23:32:16.660Z,63.30
2019-04-04T23:34:45.321Z,64.10
2019-04-04T23:37:14.389Z,63.20
2019-04-04T23:39:42.975Z,63.50
2019-04-04T23:42:11.786Z,63.40
2019-04-04T23:44:40.544Z,63.40
2019-04-04T23:47:09.128Z,63.50
2019-04-04T23:49:37.829Z,63.90
2019-04-04T23:52:06.607Z,64.90
2019-04-04T23:54:35.302Z,63.80
2019-04-04T23:57:03.910Z,63.90
2019-04-04T23:59:32.651Z,63.80
